• Join FlightAware (Why Join?)
  • Login
  • US Flag 
06:55PM EDT


 

Airport Tracker/Info


-or-


 

Live Flight TrackerFlight Track Log ✈ EJM63 ✈ 19-Jul-2013 ✈ KACK - KOKV

Flight Track Log - Related Links

Times and Time Zones

All times are in EDT time to prevent confusion due to time zone crossing. See the EJM63 flight status page for this flight to view local times or setup timezone preferences in your user account.

Time Position Orientation Groundspeed Altitude Reporting Facility
EDT Latitude Longitude Course Direction KTS MPH feet Rate Location/Type
01:53PM 41.2306 -70.1300 297° West 240 276 3,200  Level Boston Center
01:54PM 41.2525 -70.1869 297° West 205 236 7,600 3,600 Climbing Boston Center
01:55PM 41.2853 -70.2689 298° West 211 243 10,500 2,880 Climbing Boston Center
01:56PM 41.3186 -70.3728 293° West 264 304 13,400 2,880 Climbing Boston Center
01:57PM 41.3103 -70.4944 265° West 318 366 16,300 2,400 Climbing Boston Center
01:58PM 41.2956 -70.6028 260° West 318 366 18,300 2,040 Climbing Boston Center
01:59PM 41.2789 -70.7414 261° West 336 387 20,400 1,980 Climbing Boston Center
02:00PM 41.2642 -70.8744 262° West 358 412 22,300 1,680 Climbing Boston Center
02:01PM 41.2450 -71.0100 259° West 371 427 23,800 1,320 Climbing Boston Center
02:02PM 41.2297 -71.1181 259° West 371 427 25,000 1,500 Climbing Boston Center
02:03PM 41.2086 -71.2839 260° West 376 433 26,800 1,680 Climbing Boston Center
02:04PM 41.1892 -71.4250 260° West 376 433 28,400 1,260 Climbing Boston Center
02:05PM 41.1717 -71.5686 261° West 388 447 29,700 1,080 Climbing Boston Center
02:06PM 41.1328 -71.6767 244° Southwest 381 438 30,900 1,080 Climbing Boston Center
02:07PM 41.0817 -71.8397 247° West 393 452 32,200 1,020 Climbing Boston Center
02:09PM 41.0283 -72.0136 248° West 413 475 33,400 780 Climbing Boston Center
02:10PM 40.9725 -72.1872 247° West 418 481 34,000 300 Climbing Boston Center
02:11PM 40.9228 -72.3331 246° West 428 493 34,000  Level Boston Center
02:12PM 40.8750 -72.4894 248° West 441 507 34,000  Level Boston Center
02:13PM 40.8206 -72.6539 246° West 449 517 34,000  Level Boston Center
02:14PM 40.7700 -72.8156 248° West 449 517 34,000  Level Boston Center
02:15PM 40.6897 -73.0592 247° West 465 535 34,000  Level New York Center
02:16PM 40.6386 -73.2133 246° West 465 535 34,000  Level New York Center
02:17PM 40.5875 -73.3672 246° West 465 535 34,000  Level New York Center
02:18PM 40.5381 -73.5183 247° West 465 535 34,000  Level New York Center
02:19PM 40.4844 -73.6717 245° Southwest 465 535 34,000  Level New York Center
02:20PM 40.4261 -73.8356 245° Southwest 465 535 34,000  Level New York Center
02:21PM 40.3761 -73.9886 247° West 460 529 34,000 -120 Level New York Center
02:22PM 40.3261 -74.1386 246° West 455 524 33,800 -660 Descending New York Center
02:23PM 40.2736 -74.2911 246° West 455 524 32,700 -1,140 Descending New York Center
02:24PM 40.2233 -74.4408 246° West 455 524 31,500 -1,440 Descending New York Center
02:25PM 40.1997 -74.5917 258° West 461 531 29,900 -1,860 Descending New York Center
02:26PM 40.1914 -74.7814 267° West 473 544 27,900 -1,920 Descending New York Center
02:27PM 40.1875 -74.9469 268° West 473 544 26,100 -1,800 Descending New York Center
02:28PM 40.1797 -75.1069 266° West 461 531 24,300 -1,740 Descending New York Center
02:29PM 40.1739 -75.2614 267° West 448 516 22,600 -1,740 Descending New York Center
02:30PM 40.1661 -75.4075 266° West 428 493 20,800 -1,320 Descending New York Center
02:31PM 40.1583 -75.5508 266° West 412 474 20,000 -420 Descending New York Center
02:32PM 40.1525 -75.6944 267° West 405 466 20,000  Level New York Center
02:33PM 40.1444 -75.8353 266° West 395 455 20,000 -120 Level New York Center
02:34PM 40.1403 -75.9761 268° West 395 455 19,800 -600 Descending New York Center
02:35PM 40.1306 -76.1031 264° West 395 455 18,900 -960 Descending New York Center
02:36PM 40.1219 -76.2436 265° West 395 455 17,900 -1,080 Descending New York Center
02:37PM 40.0781 -76.3811 247° West 382 440 16,800 -960 Descending New York Center
02:39PM 39.9667 -76.6167 238° Southwest 373 429 15,000 -600 Descending Potomac TRACON
02:40PM 39.9167 -76.7333 241° Southwest 365 420 15,000  Level Potomac TRACON
02:41PM 39.8667 -76.8500 241° Southwest 364 419 15,000 -300 Level Potomac TRACON
02:42PM 39.8167 -76.9500 237° Southwest 374 430 14,500 -1,020 Descending Potomac TRACON
02:44PM 39.7458 -77.0815 239° Southwest  Level FlightAware Approximate
02:44PM 39.7000 -77.1667 239° Southwest 358 412 12,000  Level Potomac TRACON
02:45PM 39.6500 -77.2833 241° Southwest 355 409 10,600 -1,200 Descending Potomac TRACON
02:46PM 39.6167 -77.3667 243° Southwest 299 344 9,600 -1,080 Descending Potomac TRACON
02:47PM 39.5667 -77.4667 237° Southwest 275 316 8,400 -1,080 Descending Potomac TRACON
02:48PM 39.5167 -77.5333 226° Southwest 276 318 7,500 -1,020 Descending Potomac TRACON
02:49PM 39.4667 -77.6167 232° Southwest 278 320 6,400 -1,020 Descending Potomac TRACON
02:50PM 39.4167 -77.6833 226° Southwest 276 318 5,500 -1,020 Descending Potomac TRACON
02:51PM 39.3500 -77.7500 218° Southwest 279 321 4,400 -1,020 Descending Potomac TRACON
02:52PM 39.3000 -77.8167 226° Southwest 276 318 3,500 -780 Descending Potomac TRACON
02:53PM 39.2667 -77.8833 237° Southwest 270 311 3,000 -300 Descending Potomac TRACON
02:54PM 39.2000 -77.9500 218° Southwest 247 284 3,000 -120 Level Potomac TRACON
02:55PM 39.1667 -78.0000 229° Southwest 212 244 2,800 -240 Descending Potomac TRACON